Time,TemperatureF,DewpointF,PressureIn,WindDirection,WindDirectionDegrees,WindSpeedMPH,WindSpeedGustMPH,Humidity,HourlyPrecipIn,Conditions,Clouds,dailyrainin,SoftwareType,DateUTC
2013-08-16 00:01:00,54.4,53.0,29.13,North,0,0.0,0.0,95,0.00,,,0.00,proprietary,2013-08-16 04:01:00,
2013-08-16 00:02:00,54.4,53.1,29.13,North,0,0.0,0.0,95,0.00,,,0.00,proprietary,2013-08-16 04:02:00,
2013-08-16 00:03:00,54.5,53.2,29.13,North,0,0.0,0.0,95,0.00,,,0.00,proprietary,2013-08-16 04:03:00,
2013-08-16 00:07:00,54.5,53.2,29.13,North,0,0.0,0.0,95,0.00,,,0.00,proprietary,2013-08-16 04:07:00,
2013-08-16 00:11:00,54.3,53.0,29.13,North,0,0.0,0.0,95,0.00,,,0.00,proprietary,2013-08-16 04:11:00,
2013-08-16 00:16:00,54.0,52.6,29.13,North,0,0.0,0.0,94,0.00,,,0.00,proprietary,2013-08-16 04:16:00,
2013-08-16 00:21:00,53.7,52.0,29.13,North,0,0.0,0.0,93,0.00,,,0.00,proprietary,2013-08-16 04:21:00,
2013-08-16 00:27:00,53.6,51.8,29.13,North,0,0.0,0.0,93,0.00,,,0.00,proprietary,2013-08-16 04:27:00,
2013-08-16 00:33:00,53.6,52.0,29.13,North,0,0.0,0.0,94,0.00,,,0.00,proprietary,2013-08-16 04:33:00,
2013-08-16 00:38:00,53.3,51.8,29.13,North,0,0.0,0.0,94,0.00,,,0.00,proprietary,2013-08-16 04:38:00,
2013-08-16 00:43:00,53.2,51.8,29.12,North,0,0.0,0.0,94,0.00,,,0.00,proprietary,2013-08-16 04:43:00,
2013-08-16 00:48:00,53.3,52.0,29.12,North,0,0.0,0.0,95,0.00,,,0.00,proprietary,2013-08-16 04:48:00,
2013-08-16 00:54:00,53.2,51.9,29.13,North,0,0.0,0.0,95,0.00,,,0.00,proprietary,2013-08-16 04:54:00,
2013-08-16 00:59:00,53.0,51.6,29.13,North,0,0.0,0.0,95,0.00,,,0.00,proprietary,2013-08-16 04:59:00,
2013-08-16 01:04:00,52.8,51.4,29.13,North,0,0.0,0.0,94,0.00,,,0.00,proprietary,2013-08-16 05:04:00,
2013-08-16 01:09:00,52.8,51.3,29.13,North,0,0.0,0.0,94,0.00,,,0.00,proprietary,2013-08-16 05:09:00,
2013-08-16 01:14:00,52.7,51.3,29.13,North,0,0.0,0.0,95,0.00,,,0.00,proprietary,2013-08-16 05:14:00,
2013-08-16 01:20:00,52.7,51.4,29.13,North,0,0.0,0.0,95,0.00,,,0.00,proprietary,2013-08-16 05:20:00,
2013-08-16 01:26:00,52.6,51.3,29.13,North,0,0.0,0.0,95,0.00,,,0.00,proprietary,2013-08-16 05:26:00,
2013-08-16 01:31:00,52.8,51.6,29.13,North,0,0.0,0.0,95,0.00,,,0.00,proprietary,2013-08-16 05:31:00,
2013-08-16 01:36:00,52.8,51.8,29.13,North,0,0.0,0.0,96,0.00,,,0.00,proprietary,2013-08-16 05:36:00,
2013-08-16 01:41:00,52.9,51.9,29.13,North,0,0.0,0.0,96,0.00,,,0.00,proprietary,2013-08-16 05:41:00,
2013-08-16 01:46:00,53.1,52.0,29.13,North,0,0.0,0.0,96,0.00,,,0.00,proprietary,2013-08-16 05:46:00,
2013-08-16 01:51:00,53.2,52.1,29.13,North,0,0.0,0.0,95,0.00,,,0.00,proprietary,2013-08-16 05:51:00,
2013-08-16 01:56:00,53.2,52.0,29.13,North,0,0.0,0.0,95,0.00,,,0.00,proprietary,2013-08-16 05:56:00,
2013-08-16 02:01:00,53.2,52.0,29.13,North,0,0.0,0.0,95,0.00,,,0.00,proprietary,2013-08-16 06:01:00,
2013-08-16 02:06:00,53.2,52.0,29.13,North,0,0.0,0.0,95,0.00,,,0.00,proprietary,2013-08-16 06:06:00,
2013-08-16 02:11:00,53.0,51.7,29.13,North,0,0.0,0.0,95,0.00,,,0.00,proprietary,2013-08-16 06:11:00,
2013-08-16 02:16:00,52.9,51.6,29.13,North,0,0.0,0.0,95,0.00,,,0.00,proprietary,2013-08-16 06:16:00,
2013-08-16 02:21:00,52.8,51.6,29.13,North,0,0.0,0.0,95,0.00,,,0.00,proprietary,2013-08-16 06:21:00,
2013-08-16 02:26:00,52.7,51.4,29.13,North,0,0.0,0.0,95,0.00,,,0.00,proprietary,2013-08-16 06:26:00,
2013-08-16 02:31:00,52.5,51.2,29.13,North,0,0.0,0.0,95,0.00,,,0.00,proprietary,2013-08-16 06:31:00,
2013-08-16 02:36:00,52.4,51.1,29.13,North,0,0.0,0.0,95,0.00,,,0.00,proprietary,2013-08-16 06:36:00,
2013-08-16 02:37:00,52.4,51.0,29.13,North,0,0.0,0.0,95,0.00,,,0.00,proprietary,2013-08-16 06:37:00,
2013-08-16 02:42:00,52.1,50.7,29.13,North,0,0.0,0.0,95,0.00,,,0.00,proprietary,2013-08-16 06:42:00,
2013-08-16 02:47:00,51.9,50.6,29.13,North,0,0.0,0.0,95,0.00,,,0.00,proprietary,2013-08-16 06:47:00,
2013-08-16 02:52:00,51.7,50.5,29.13,North,0,0.0,0.0,95,0.00,,,0.00,proprietary,2013-08-16 06:52:00,
2013-08-16 02:57:00,51.5,50.3,29.13,North,0,0.0,0.0,95,0.00,,,0.00,proprietary,2013-08-16 06:57:00,
2013-08-16 03:02:00,51.5,50.5,29.13,North,0,0.0,0.0,96,0.00,,,0.00,proprietary,2013-08-16 07:02:00,
2013-08-16 03:07:00,51.8,50.8,29.13,North,0,0.0,0.0,96,0.00,,,0.00,proprietary,2013-08-16 07:07:00,
2013-08-16 03:12:00,51.5,50.5,29.13,North,0,0.0,0.0,96,0.00,,,0.00,proprietary,2013-08-16 07:12:00,
2013-08-16 03:18:00,51.8,50.9,29.13,North,0,0.0,0.0,96,0.00,,,0.00,proprietary,2013-08-16 07:18:00,
2013-08-16 03:23:00,51.4,50.4,29.13,North,0,0.0,0.0,96,0.00,,,0.00,proprietary,2013-08-16 07:23:00,
2013-08-16 03:28:00,51.4,50.5,29.14,North,0,0.0,0.0,96,0.00,,,0.00,proprietary,2013-08-16 07:28:00,
2013-08-16 03:33:00,51.6,50.7,29.14,North,0,0.0,0.0,96,0.00,,,0.00,proprietary,2013-08-16 07:33:00,
2013-08-16 03:38:00,51.2,50.1,29.14,North,0,0.0,0.0,96,0.00,,,0.00,proprietary,2013-08-16 07:38:00,
2013-08-16 03:43:00,51.1,49.8,29.14,North,0,0.0,0.0,95,0.00,,,0.00,proprietary,2013-08-16 07:43:00,
2013-08-16 03:48:00,51.1,49.5,29.14,North,0,0.0,0.0,94,0.00,,,0.00,proprietary,2013-08-16 07:48:00,
2013-08-16 03:53:00,51.0,49.4,29.14,North,0,0.0,0.0,94,0.00,,,0.00,proprietary,2013-08-16 07:53:00,
2013-08-16 03:58:00,50.9,49.2,29.14,North,0,0.0,0.0,93,0.00,,,0.00,proprietary,2013-08-16 07:58:00,
2013-08-16 04:03:00,50.8,49.4,29.14,North,0,0.0,0.0,94,0.00,,,0.00,proprietary,2013-08-16 08:03:00,
2013-08-16 04:08:00,51.0,49.6,29.14,North,0,0.0,0.0,95,0.00,,,0.00,proprietary,2013-08-16 08:08:00,
2013-08-16 04:14:00,50.9,49.5,29.14,North,0,0.0,0.0,95,0.00,,,0.00,proprietary,2013-08-16 08:14:00,
2013-08-16 04:19:00,50.8,49.5,29.14,North,0,0.0,0.0,95,0.00,,,0.00,proprietary,2013-08-16 08:19:00,
2013-08-16 04:24:00,50.8,49.5,29.14,North,0,0.0,0.0,95,0.00,,,0.00,proprietary,2013-08-16 08:24:00,
2013-08-16 04:30:00,50.8,49.6,29.14,North,0,0.0,0.0,95,0.00,,,0.00,proprietary,2013-08-16 08:30:00,
2013-08-16 04:36:00,50.8,49.6,29.14,North,0,0.0,0.0,95,0.00,,,0.00,proprietary,2013-08-16 08:36:00,
2013-08-16 04:41:00,50.8,49.7,29.14,North,0,0.0,0.0,95,0.00,,,0.00,proprietary,2013-08-16 08:41:00,
2013-08-16 04:46:00,50.8,49.7,29.15,North,0,0.0,0.0,96,0.00,,,0.00,proprietary,2013-08-16 08:46:00,
2013-08-16 04:51:00,50.8,49.7,29.14,North,0,0.0,0.0,96,0.00,,,0.00,proprietary,2013-08-16 08:51:00,
2013-08-16 04:56:00,50.7,49.6,29.15,North,0,0.0,0.0,95,0.00,,,0.00,proprietary,2013-08-16 08:56:00,
2013-08-16 05:01:00,50.7,49.7,29.14,North,0,0.0,0.0,96,0.00,,,0.00,proprietary,2013-08-16 09:01:00,
2013-08-16 05:06:00,50.8,49.8,29.14,North,0,0.0,0.0,96,0.00,,,0.00,proprietary,2013-08-16 09:06:00,
2013-08-16 05:11:00,50.9,49.8,29.15,North,0,0.0,0.0,96,0.00,,,0.00,proprietary,2013-08-16 09:11:00,
2013-08-16 05:16:00,50.8,49.7,29.15,North,0,0.0,0.0,96,0.00,,,0.00,proprietary,2013-08-16 09:16:00,
2013-08-16 05:21:00,50.7,49.5,29.15,North,0,0.0,0.0,95,0.00,,,0.00,proprietary,2013-08-16 09:21:00,
2013-08-16 05:26:00,50.7,49.4,29.15,North,0,0.0,0.0,95,0.00,,,0.00,proprietary,2013-08-16 09:26:00,
2013-08-16 05:31:00,50.8,49.5,29.15,North,0,0.0,0.0,95,0.00,,,0.00,proprietary,2013-08-16 09:31:00,
2013-08-16 05:36:00,50.8,49.6,29.14,North,0,0.0,0.0,95,0.00,,,0.00,proprietary,2013-08-16 09:36:00,
2013-08-16 05:41:00,50.9,49.8,29.14,North,0,0.0,0.0,95,0.00,,,0.00,proprietary,2013-08-16 09:41:00,
2013-08-16 05:46:00,51.0,49.9,29.14,North,0,0.0,0.0,96,0.00,,,0.00,proprietary,2013-08-16 09:46:00,
2013-08-16 05:51:00,51.0,50.0,29.14,North,0,0.0,0.0,96,0.00,,,0.00,proprietary,2013-08-16 09:51:00,
2013-08-16 05:56:00,51.2,50.3,29.14,North,0,0.0,0.0,96,0.00,,,0.00,proprietary,2013-08-16 09:56:00,
2013-08-16 06:01:00,51.5,50.6,29.14,North,0,0.0,0.0,96,0.00,,,0.00,proprietary,2013-08-16 10:01:00,
2013-08-16 06:06:00,51.6,50.6,29.14,North,0,0.0,0.0,96,0.00,,,0.00,proprietary,2013-08-16 10:06:00,
2013-08-16 06:11:00,51.5,50.5,29.14,North,0,0.0,0.0,96,0.00,,,0.00,proprietary,2013-08-16 10:11:00,
2013-08-16 06:16:00,51.7,50.6,29.14,North,0,0.0,0.0,96,0.00,,,0.00,proprietary,2013-08-16 10:16:00,
2013-08-16 06:21:00,51.8,50.7,29.14,North,0,0.0,0.0,95,0.00,,,0.00,proprietary,2013-08-16 10:21:00,
2013-08-16 06:26:00,52.5,51.0,29.14,North,0,0.0,0.0,94,0.00,,,0.00,proprietary,2013-08-16 10:26:00,
2013-08-16 06:31:00,53.0,51.0,29.14,North,0,0.0,0.0,93,0.00,,,0.00,proprietary,2013-08-16 10:31:00,
2013-08-16 06:36:00,54.2,51.0,29.14,North,0,0.0,0.0,89,0.00,,,0.00,proprietary,2013-08-16 10:36:00,
2013-08-16 06:41:00,54.4,50.6,29.15,NW,305,0.5,1.6,86,0.00,,,0.00,proprietary,2013-08-16 10:41:00,
2013-08-16 06:46:00,54.4,50.5,29.15,NW,309,1.5,2.2,86,0.00,,,0.00,proprietary,2013-08-16 10:46:00,
2013-08-16 06:51:00,54.3,50.4,29.15,NW,320,3.2,3.9,86,0.00,,,0.00,proprietary,2013-08-16 10:51:00,
2013-08-16 06:56:00,54.4,50.4,29.15,NW,319,1.1,2.5,86,0.00,,,0.00,proprietary,2013-08-16 10:56:00,
2013-08-16 07:01:00,54.4,50.3,29.15,NW,311,1.7,2.2,86,0.00,,,0.00,proprietary,2013-08-16 11:01:00,
2013-08-16 07:06:00,54.6,50.2,29.15,NW,305,1.3,2.4,85,0.00,,,0.00,proprietary,2013-08-16 11:06:00,
2013-08-16 07:11:00,55.1,49.9,29.15,NW,312,2.0,2.3,82,0.00,,,0.00,proprietary,2013-08-16 11:11:00,
2013-08-16 07:16:00,55.5,49.9,29.15,WNW,303,2.9,4.5,81,0.00,,,0.00,proprietary,2013-08-16 11:16:00,
2013-08-16 07:21:00,56.1,50.2,29.15,NW,305,2.5,3.5,80,0.00,,,0.00,proprietary,2013-08-16 11:21:00,
2013-08-16 07:26:00,56.0,50.5,29.16,NW,313,2.4,3.2,81,0.00,,,0.00,proprietary,2013-08-16 11:26:00,
2013-08-16 07:31:00,55.9,50.8,29.16,NW,307,2.2,3.0,83,0.00,,,0.00,proprietary,2013-08-16 11:31:00,
2013-08-16 07:36:00,56.0,50.9,29.16,NW,306,2.7,3.8,82,0.00,,,0.00,proprietary,2013-08-16 11:36:00,
2013-08-16 07:41:00,56.1,51.1,29.16,NW,314,3.3,4.0,83,0.00,,,0.00,proprietary,2013-08-16 11:41:00,
2013-08-16 07:46:00,56.5,51.4,29.16,NW,313,2.8,3.6,82,0.00,,,0.00,proprietary,2013-08-16 11:46:00,
2013-08-16 07:51:00,56.8,51.8,29.16,NW,307,3.7,4.9,83,0.00,,,0.00,proprietary,2013-08-16 11:51:00,
2013-08-16 07:56:00,57.0,51.6,29.16,NW,307,2.3,3.0,82,0.00,,,0.00,proprietary,2013-08-16 11:56:00,
2013-08-16 08:01:00,57.6,52.1,29.16,NW,308,3.4,4.3,81,0.00,,,0.00,proprietary,2013-08-16 12:01:00,
2013-08-16 08:06:00,58.5,52.0,29.16,NW,312,3.7,4.3,78,0.00,,,0.00,proprietary,2013-08-16 12:06:00,
2013-08-16 08:11:00,59.0,52.1,29.16,NW,315,3.2,4.1,77,0.00,,,0.00,proprietary,2013-08-16 12:11:00,
2013-08-16 08:16:00,59.6,52.0,29.16,NNW,330,4.0,5.4,75,0.00,,,0.00,proprietary,2013-08-16 12:16:00,
2013-08-16 08:21:00,60.0,52.2,29.16,NW,322,4.6,6.1,75,0.00,,,0.00,proprietary,2013-08-16 12:21:00,
2013-08-16 08:26:00,60.7,52.8,29.16,NW,320,4.6,5.5,75,0.00,,,0.00,proprietary,2013-08-16 12:26:00,
2013-08-16 08:31:00,61.1,52.6,29.16,NW,326,4.2,5.1,73,0.00,,,0.00,proprietary,2013-08-16 12:31:00,
2013-08-16 08:36:00,61.6,52.9,29.16,NW,318,4.2,5.4,73,0.00,,,0.00,proprietary,2013-08-16 12:36:00,
2013-08-16 08:41:00,62.2,53.2,29.16,NW,319,3.7,4.4,72,0.00,,,0.00,proprietary,2013-08-16 12:41:00,
2013-08-16 08:46:00,62.7,53.0,29.16,NNW,341,3.0,4.0,70,0.00,,,0.00,proprietary,2013-08-16 12:46:00,
2013-08-16 08:51:00,62.8,52.7,29.16,NW,326,2.7,4.8,69,0.00,,,0.00,proprietary,2013-08-16 12:51:00,
2013-08-16 08:56:00,63.0,52.6,29.16,North,357,4.4,5.7,68,0.00,,,0.00,proprietary,2013-08-16 12:56:00,
2013-08-16 09:01:00,63.5,52.8,29.16,NNW,331,3.5,4.2,68,0.00,,,0.00,proprietary,2013-08-16 13:01:00,
2013-08-16 09:06:00,63.8,52.9,29.16,North,353,4.1,5.4,67,0.00,,,0.00,proprietary,2013-08-16 13:06:00,
2013-08-16 09:11:00,64.0,52.3,29.16,North,354,4.2,5.9,65,0.00,,,0.00,proprietary,2013-08-16 13:11:00,
2013-08-16 09:16:00,64.3,53.0,29.16,NNW,345,4.4,5.1,66,0.00,,,0.00,proprietary,2013-08-16 13:16:00,
2013-08-16 09:21:00,65.3,53.7,29.16,NNW,348,3.4,6.5,65,0.00,,,0.00,proprietary,2013-08-16 13:21:00,
2013-08-16 09:26:00,66.0,53.7,29.17,North,357,4.2,5.3,64,0.00,,,0.00,proprietary,2013-08-16 13:26:00,
2013-08-16 09:31:00,66.2,52.7,29.17,North,8,4.4,5.5,61,0.00,,,0.00,proprietary,2013-08-16 13:31:00,
2013-08-16 09:36:00,66.4,52.3,29.17,NNE,16,4.6,5.7,60,0.00,,,0.00,proprietary,2013-08-16 13:36:00,
2013-08-16 09:41:00,66.4,52.7,29.17,NNE,19,5.5,6.2,61,0.00,,,0.00,proprietary,2013-08-16 13:41:00,
2013-08-16 09:46:00,67.0,52.6,29.17,NNE,19,5.3,6.2,59,0.00,,,0.00,proprietary,2013-08-16 13:46:00,
2013-08-16 09:51:00,67.2,52.6,29.17,NNE,17,5.6,6.4,59,0.00,,,0.00,proprietary,2013-08-16 13:51:00,
2013-08-16 09:56:00,67.0,52.2,29.17,NNE,18,6.8,7.4,58,0.00,,,0.00,proprietary,2013-08-16 13:56:00,
2013-08-16 10:01:00,67.2,52.1,29.17,NNE,17,6.5,8.1,58,0.00,,,0.00,proprietary,2013-08-16 14:01:00,
2013-08-16 10:06:00,67.4,51.6,29.18,NNE,19,5.5,7.0,56,0.00,,,0.00,proprietary,2013-08-16 14:06:00,
2013-08-16 10:11:00,67.6,52.3,29.18,NNE,17,4.2,6.3,57,0.00,,,0.00,proprietary,2013-08-16 14:11:00,
2013-08-16 10:16:00,67.8,51.9,29.18,North,0,3.6,4.1,56,0.00,,,0.00,proprietary,2013-08-16 14:16:00,
2013-08-16 10:21:00,68.1,53.2,29.18,North,5,4.6,6.1,58,0.00,,,0.00,proprietary,2013-08-16 14:21:00,
2013-08-16 10:26:00,68.5,52.3,29.18,North,11,3.4,4.2,56,0.00,,,0.00,proprietary,2013-08-16 14:26:00,
2013-08-16 10:31:00,68.9,52.6,29.18,North,5,4.1,5.1,55,0.00,,,0.00,proprietary,2013-08-16 14:31:00,
2013-08-16 10:36:00,69.2,50.8,29.18,North,349,4.2,6.6,51,0.00,,,0.00,proprietary,2013-08-16 14:36:00,
2013-08-16 10:41:00,69.2,51.6,29.18,NNW,343,4.8,5.8,53,0.00,,,0.00,proprietary,2013-08-16 14:41:00,
2013-08-16 10:46:00,69.8,51.8,29.18,North,353,3.4,5.2,52,0.00,,,0.00,proprietary,2013-08-16 14:46:00,
2013-08-16 10:51:00,70.2,52.4,29.19,North,354,3.2,3.7,53,0.00,,,0.00,proprietary,2013-08-16 14:51:00,
2013-08-16 10:56:00,70.0,53.0,29.19,NNW,339,4.3,5.3,54,0.00,,,0.00,proprietary,2013-08-16 14:56:00,
2013-08-16 11:01:00,70.6,53.2,29.19,NNE,16,2.7,4.5,54,0.00,,,0.00,proprietary,2013-08-16 15:01:00,
2013-08-16 11:06:00,70.3,52.2,29.19,NNE,12,3.7,5.2,52,0.00,,,0.00,proprietary,2013-08-16 15:06:00,
2013-08-16 11:11:00,71.1,54.1,29.19,North,359,1.2,4.1,54,0.00,,,0.00,proprietary,2013-08-16 15:11:00,
2013-08-16 11:16:00,71.6,52.4,29.19,NE,36,3.3,4.8,50,0.00,,,0.00,proprietary,2013-08-16 15:16:00,
2013-08-16 11:21:00,70.9,52.6,29.19,NNW,344,3.0,4.9,52,0.00,,,0.00,proprietary,2013-08-16 15:21:00,
2013-08-16 11:26:00,71.0,52.5,29.20,North,352,6.4,7.2,52,0.00,,,0.00,proprietary,2013-08-16 15:26:00,
2013-08-16 11:31:00,71.6,53.5,29.19,North,11,2.3,3.1,52,0.00,,,0.00,proprietary,2013-08-16 15:31:00,
2013-08-16 11:36:00,71.5,53.9,29.20,North,11,4.0,5.5,53,0.00,,,0.00,proprietary,2013-08-16 15:36:00,
2013-08-16 11:41:00,71.0,53.5,29.19,NW,305,1.8,3.2,53,0.00,,,0.00,proprietary,2013-08-16 15:41:00,
2013-08-16 11:46:00,71.9,54.6,29.19,NE,41,1.6,3.3,54,0.00,,,0.00,proprietary,2013-08-16 15:46:00,
2013-08-16 11:51:00,72.0,54.0,29.20,North,359,1.2,3.0,53,0.00,,,0.00,proprietary,2013-08-16 15:51:00,
2013-08-16 11:56:00,72.2,53.0,29.19,North,357,3.5,5.1,50,0.00,,,0.00,proprietary,2013-08-16 15:56:00,
2013-08-16 12:01:00,72.1,52.2,29.19,NNW,334,6.3,8.1,49,0.00,,,0.00,proprietary,2013-08-16 16:01:00,
2013-08-16 12:06:00,72.4,53.5,29.19,North,2,3.1,4.1,51,0.00,,,0.00,proprietary,2013-08-16 16:06:00,
2013-08-16 12:11:00,72.8,52.1,29.19,North,350,6.4,9.1,48,0.00,,,0.00,proprietary,2013-08-16 16:11:00,
2013-08-16 12:16:00,72.2,52.7,29.19,NNW,335,5.7,7.4,50,0.00,,,0.00,proprietary,2013-08-16 16:16:00,
2013-08-16 12:21:00,72.5,52.5,29.19,NNE,21,5.9,7.8,49,0.00,,,0.00,proprietary,2013-08-16 16:21:00,
2013-08-16 12:26:00,72.4,52.2,29.19,NNW,344,5.1,6.6,48,0.00,,,0.00,proprietary,2013-08-16 16:26:00,
2013-08-16 12:31:00,72.6,51.8,29.19,North,351,3.6,4.7,47,0.00,,,0.00,proprietary,2013-08-16 16:31:00,
2013-08-16 12:36:00,73.0,52.1,29.19,NNW,337,3.1,3.9,47,0.00,,,0.00,proprietary,2013-08-16 16:36:00,
2013-08-16 12:41:00,72.7,51.9,29.19,NNW,328,4.8,7.6,48,0.00,,,0.00,proprietary,2013-08-16 16:41:00,
2013-08-16 12:46:00,72.8,53.3,29.19,North,355,1.7,2.2,50,0.00,,,0.00,proprietary,2013-08-16 16:46:00,
2013-08-16 12:51:00,73.5,51.4,29.19,ESE,106,3.2,5.2,45,0.00,,,0.00,proprietary,2013-08-16 16:51:00,
2013-08-16 12:56:00,74.1,52.4,29.19,SW,224,0.8,2.0,46,0.00,,,0.00,proprietary,2013-08-16 16:56:00,
2013-08-16 13:01:00,75.3,51.9,29.19,North,5,7.0,9.9,43,0.00,,,0.00,proprietary,2013-08-16 17:01:00,
2013-08-16 13:06:00,73.8,52.8,29.19,ENE,59,1.7,2.8,47,0.00,,,0.00,proprietary,2013-08-16 17:06:00,
2013-08-16 13:11:00,72.7,53.0,29.19,NNE,15,2.7,4.1,49,0.00,,,0.00,proprietary,2013-08-16 17:11:00,
2013-08-16 13:16:00,71.9,52.5,29.19,North,0,0.0,0.0,50,0.00,,,0.00,proprietary,2013-08-16 17:16:00,
2013-08-16 13:21:00,72.3,51.0,29.19,ENE,75,0.9,1.7,47,0.00,,,0.00,proprietary,2013-08-16 17:21:00,
2013-08-16 13:26:00,72.4,51.1,29.19,North,358,0.8,3.7,47,0.00,,,0.00,proprietary,2013-08-16 17:26:00,
2013-08-16 13:31:00,72.6,52.3,29.19,NNE,20,2.9,3.5,48,0.00,,,0.00,proprietary,2013-08-16 17:31:00,
2013-08-16 13:36:00,72.5,51.8,29.18,NNE,15,2.3,3.5,48,0.00,,,0.00,proprietary,2013-08-16 17:36:00,
2013-08-16 13:42:00,73.1,51.2,29.19,North,0,0.0,0.0,46,0.00,,,0.00,proprietary,2013-08-16 17:42:00,
2013-08-16 13:47:00,73.6,50.9,29.19,WNW,290,2.4,3.5,44,0.00,,,0.00,proprietary,2013-08-16 17:47:00,
2013-08-16 13:52:00,74.1,50.8,29.19,North,11,2.4,2.6,43,0.00,,,0.00,proprietary,2013-08-16 17:52:00,
2013-08-16 13:57:00,73.6,52.8,29.19,NNE,14,4.0,5.0,48,0.00,,,0.00,proprietary,2013-08-16 17:57:00,
2013-08-16 14:02:00,73.0,52.5,29.19,North,355,2.8,4.3,48,0.00,,,0.00,proprietary,2013-08-16 18:02:00,
2013-08-16 14:07:00,73.0,53.0,29.18,North,352,0.3,1.5,49,0.00,,,0.00,proprietary,2013-08-16 18:07:00,
2013-08-16 14:12:00,74.3,51.7,29.18,SE,137,1.3,2.0,45,0.00,,,0.00,proprietary,2013-08-16 18:12:00,
2013-08-16 14:17:00,74.1,49.0,29.18,East,92,1.2,2.2,41,0.00,,,0.00,proprietary,2013-08-16 18:17:00,
2013-08-16 14:22:00,74.2,49.4,29.18,SE,140,1.2,2.5,41,0.00,,,0.00,proprietary,2013-08-16 18:22:00,
2013-08-16 14:27:00,75.4,50.6,29.18,SE,133,2.8,4.4,41,0.00,,,0.00,proprietary,2013-08-16 18:27:00,
2013-08-16 14:32:00,74.8,51.1,29.18,SE,127,2.5,4.6,43,0.00,,,0.00,proprietary,2013-08-16 18:32:00,
2013-08-16 14:37:00,74.4,50.7,29.18,North,0,0.0,0.0,43,0.00,,,0.00,proprietary,2013-08-16 18:37:00,
2013-08-16 14:42:00,73.6,53.1,29.18,NNE,22,2.9,4.1,48,0.00,,,0.00,proprietary,2013-08-16 18:42:00,
2013-08-16 14:47:00,73.6,52.1,29.18,NNW,331,4.6,5.4,46,0.00,,,0.00,proprietary,2013-08-16 18:47:00,
2013-08-16 14:52:00,74.8,54.7,29.18,NNW,342,3.2,4.7,49,0.00,,,0.00,proprietary,2013-08-16 18:52:00,
2013-08-16 14:57:00,75.1,51.3,29.18,WNW,295,1.1,2.5,43,0.00,,,0.00,proprietary,2013-08-16 18:57:00,
2013-08-16 15:02:00,75.7,52.0,29.18,West,275,2.5,4.0,43,0.00,,,0.00,proprietary,2013-08-16 19:02:00,
2013-08-16 15:07:00,76.7,52.1,29.18,North,351,2.7,3.3,42,0.00,,,0.00,proprietary,2013-08-16 19:07:00,
2013-08-16 15:12:00,76.1,51.7,29.18,SW,232,2.4,4.4,42,0.00,,,0.00,proprietary,2013-08-16 19:12:00,
2013-08-16 15:17:00,75.6,50.9,29.18,SW,223,1.1,2.7,41,0.00,,,0.00,proprietary,2013-08-16 19:17:00,
2013-08-16 15:22:00,75.7,52.3,29.18,North,0,1.7,3.1,44,0.00,,,0.00,proprietary,2013-08-16 19:22:00,
2013-08-16 15:27:00,75.7,50.4,29.17,North,349,5.1,5.8,40,0.00,,,0.00,proprietary,2013-08-16 19:27:00,
2013-08-16 15:32:00,74.8,50.3,29.17,NNW,338,4.1,5.0,42,0.00,,,0.00,proprietary,2013-08-16 19:32:00,
2013-08-16 15:37:00,73.9,52.5,29.17,NE,34,0.7,3.4,47,0.00,,,0.00,proprietary,2013-08-16 19:37:00,
2013-08-16 15:42:00,74.5,53.1,29.17,ESE,116,0.4,3.1,47,0.00,,,0.00,proprietary,2013-08-16 19:42:00,
2013-08-16 15:47:00,75.0,51.5,29.17,NNW,340,3.2,3.9,43,0.00,,,0.00,proprietary,2013-08-16 19:47:00,
2013-08-16 15:52:00,76.2,51.1,29.17,NNW,344,4.9,5.8,41,0.00,,,0.00,proprietary,2013-08-16 19:52:00,
2013-08-16 15:57:00,76.6,52.5,29.17,NW,320,4.9,6.9,43,0.00,,,0.00,proprietary,2013-08-16 19:57:00,
2013-08-16 16:02:00,77.3,53.0,29.17,North,1,4.2,7.5,42,0.00,,,0.00,proprietary,2013-08-16 20:02:00,
2013-08-16 16:08:00,77.0,52.6,29.17,NW,319,6.0,7.3,42,0.00,,,0.00,proprietary,2013-08-16 20:08:00,
2013-08-16 16:13:00,76.7,52.1,29.17,WNW,302,4.6,5.8,42,0.00,,,0.00,proprietary,2013-08-16 20:13:00,
2013-08-16 16:18:00,75.2,52.5,29.17,NNW,346,6.0,8.2,45,0.00,,,0.00,proprietary,2013-08-16 20:18:00,
2013-08-16 16:23:00,74.4,54.2,29.17,NNE,29,2.2,3.5,49,0.00,,,0.00,proprietary,2013-08-16 20:23:00,
2013-08-16 16:28:00,73.7,54.0,29.17,North,356,2.2,2.4,50,0.00,,,0.00,proprietary,2013-08-16 20:28:00,
2013-08-16 16:33:00,73.4,53.0,29.17,North,4,3.4,4.4,48,0.00,,,0.00,proprietary,2013-08-16 20:33:00,
2013-08-16 16:38:00,73.3,53.9,29.17,NNE,17,3.8,4.3,50,0.00,,,0.00,proprietary,2013-08-16 20:38:00,
2013-08-16 16:43:00,73.0,55.1,29.17,North,5,2.3,3.5,53,0.00,,,0.00,proprietary,2013-08-16 20:43:00,
2013-08-16 16:48:00,73.3,54.6,29.17,NNW,335,3.1,3.4,51,0.00,,,0.00,proprietary,2013-08-16 20:48:00,
2013-08-16 16:53:00,73.5,54.5,29.17,NNW,330,3.5,4.4,51,0.00,,,0.00,proprietary,2013-08-16 20:53:00,
2013-08-16 16:58:00,75.2,53.5,29.17,NW,317,3.0,3.7,46,0.00,,,0.00,proprietary,2013-08-16 20:58:00,
2013-08-16 17:03:00,76.5,52.0,29.17,North,0,1.8,3.3,42,0.00,,,0.00,proprietary,2013-08-16 21:03:00,
2013-08-16 17:08:00,76.0,53.1,29.17,West,274,2.6,4.3,44,0.00,,,0.00,proprietary,2013-08-16 21:08:00,
2013-08-16 17:13:00,77.0,50.7,29.17,NNW,344,3.0,3.9,39,0.00,,,0.00,proprietary,2013-08-16 21:13:00,
2013-08-16 17:18:00,75.3,51.5,29.17,South,185,2.3,2.5,43,0.00,,,0.00,proprietary,2013-08-16 21:18:00,
2013-08-16 17:23:00,76.1,52.0,29.17,West,260,0.3,1.4,42,0.00,,,0.00,proprietary,2013-08-16 21:23:00,
2013-08-16 17:28:00,76.5,52.1,29.17,SW,234,1.1,2.4,42,0.00,,,0.00,proprietary,2013-08-16 21:28:00,
2013-08-16 17:33:00,75.8,51.4,29.17,NNW,334,2.5,3.2,42,0.00,,,0.00,proprietary,2013-08-16 21:33:00,
2013-08-16 17:38:00,76.0,52.2,29.17,NNE,15,4.8,5.5,43,0.00,,,0.00,proprietary,2013-08-16 21:38:00,
2013-08-16 17:43:00,74.6,53.3,29.17,North,355,4.7,6.2,47,0.00,,,0.00,proprietary,2013-08-16 21:43:00,
2013-08-16 17:48:00,73.9,53.7,29.17,North,357,3.1,3.7,49,0.00,,,0.00,proprietary,2013-08-16 21:48:00,
2013-08-16 17:53:00,75.2,54.1,29.17,NNW,345,1.5,2.9,47,0.00,,,0.00,proprietary,2013-08-16 21:53:00,
2013-08-16 17:58:00,75.6,54.0,29.17,North,7,3.8,4.5,46,0.00,,,0.00,proprietary,2013-08-16 21:58:00,
2013-08-16 18:03:00,76.7,51.7,29.17,NNW,343,1.5,3.1,41,0.00,,,0.00,proprietary,2013-08-16 22:03:00,
2013-08-16 18:08:00,76.8,52.5,29.17,NNE,26,1.7,2.2,42,0.00,,,0.00,proprietary,2013-08-16 22:08:00,
2013-08-16 18:13:00,77.4,52.4,29.17,North,0,0.0,0.0,41,0.00,,,0.00,proprietary,2013-08-16 22:13:00,
2013-08-16 18:18:00,76.7,53.2,29.17,NNE,22,5.2,6.3,43,0.00,,,0.00,proprietary,2013-08-16 22:18:00,
2013-08-16 18:23:00,77.0,51.5,29.17,NNW,343,2.3,3.3,40,0.00,,,0.00,proprietary,2013-08-16 22:23:00,
2013-08-16 18:28:00,77.8,54.2,29.17,NNE,26,3.8,6.4,44,0.00,,,0.00,proprietary,2013-08-16 22:28:00,
2013-08-16 18:33:00,76.9,52.6,29.17,North,4,0.8,1.9,42,0.00,,,0.00,proprietary,2013-08-16 22:33:00,
2013-08-16 18:39:00,77.5,52.5,29.18,NNW,345,2.2,2.4,41,0.00,,,0.00,proprietary,2013-08-16 22:39:00,
2013-08-16 18:44:00,75.6,52.4,29.17,ESE,102,0.2,1.2,44,0.00,,,0.00,proprietary,2013-08-16 22:44:00,
2013-08-16 18:49:00,76.0,53.6,29.17,North,10,1.8,3.1,45,0.00,,,0.00,proprietary,2013-08-16 22:49:00,
2013-08-16 18:54:00,76.5,54.4,29.17,North,354,2.7,3.5,46,0.00,,,0.00,proprietary,2013-08-16 22:54:00,
2013-08-16 18:59:00,76.0,54.2,29.17,North,2,2.6,4.1,46,0.00,,,0.00,proprietary,2013-08-16 22:59:00,
2013-08-16 19:04:00,76.1,54.6,29.17,North,8,3.4,4.6,47,0.00,,,0.00,proprietary,2013-08-16 23:04:00,
2013-08-16 19:09:00,76.5,54.2,29.17,North,4,3.0,3.2,45,0.00,,,0.00,proprietary,2013-08-16 23:09:00,
2013-08-16 19:14:00,75.9,53.6,29.18,North,0,2.5,3.2,45,0.00,,,0.00,proprietary,2013-08-16 23:14:00,
2013-08-16 19:19:00,75.7,53.5,29.17,North,2,2.4,2.9,45,0.00,,,0.00,proprietary,2013-08-16 23:19:00,
2013-08-16 19:24:00,75.8,54.2,29.17,North,1,2.3,2.8,47,0.00,,,0.00,proprietary,2013-08-16 23:24:00,
2013-08-16 19:29:00,75.7,55.4,29.17,NNE,12,2.0,2.5,49,0.00,,,0.00,proprietary,2013-08-16 23:29:00,
2013-08-16 19:34:00,75.6,55.8,29.17,NNE,19,2.3,2.7,50,0.00,,,0.00,proprietary,2013-08-16 23:34:00,
2013-08-16 19:39:00,73.6,55.8,29.17,North,357,0.8,1.5,53,0.00,,,0.00,proprietary,2013-08-16 23:39:00,
2013-08-16 19:44:00,72.9,55.8,29.17,NNW,335,0.8,1.7,54,0.00,,,0.00,proprietary,2013-08-16 23:44:00,
2013-08-16 19:49:00,72.4,56.0,29.17,North,0,0.0,0.0,56,0.00,,,0.00,proprietary,2013-08-16 23:49:00,
2013-08-16 19:54:00,71.8,56.3,29.18,North,352,1.5,1.6,58,0.00,,,0.00,proprietary,2013-08-16 23:54:00,
2013-08-16 19:59:00,72.1,56.2,29.18,NW,323,1.0,1.6,57,0.00,,,0.00,proprietary,2013-08-16 23:59:00,
2013-08-16 20:04:00,71.9,56.9,29.18,NNW,332,0.5,1.2,59,0.00,,,0.00,proprietary,2013-08-17 00:04:00,
2013-08-16 20:09:00,71.0,57.5,29.18,North,0,0.0,0.0,62,0.00,,,0.00,proprietary,2013-08-17 00:09:00,
2013-08-16 20:14:00,70.0,56.5,29.18,NNW,327,0.3,1.2,62,0.00,,,0.00,proprietary,2013-08-17 00:14:00,
2013-08-16 20:19:00,68.9,58.8,29.18,North,0,0.0,0.0,70,0.00,,,0.00,proprietary,2013-08-17 00:19:00,
2013-08-16 20:24:00,68.1,59.0,29.18,North,0,0.0,0.0,72,0.00,,,0.00,proprietary,2013-08-17 00:24:00,
2013-08-16 20:29:00,67.4,59.1,29.18,North,0,0.0,0.0,74,0.00,,,0.00,proprietary,2013-08-17 00:29:00,
2013-08-16 20:34:00,66.7,59.0,29.18,North,0,0.0,0.0,76,0.00,,,0.00,proprietary,2013-08-17 00:34:00,
2013-08-16 20:39:00,66.0,59.1,29.18,North,0,0.0,0.0,78,0.00,,,0.00,proprietary,2013-08-17 00:39:00,
2013-08-16 20:44:00,65.2,59.0,29.18,North,0,0.0,0.0,80,0.00,,,0.00,proprietary,2013-08-17 00:44:00,
2013-08-16 20:49:00,64.7,58.8,29.18,North,0,0.0,0.0,81,0.00,,,0.00,proprietary,2013-08-17 00:49:00,
2013-08-16 20:54:00,64.0,58.5,29.18,NW,304,1.7,1.9,82,0.00,,,0.00,proprietary,2013-08-17 00:54:00,
2013-08-16 20:59:00,63.2,58.1,29.18,North,0,0.0,0.0,83,0.00,,,0.00,proprietary,2013-08-17 00:59:00,
2013-08-16 21:04:00,62.8,57.7,29.18,North,0,0.0,0.0,83,0.00,,,0.00,proprietary,2013-08-17 01:04:00,
2013-08-16 21:09:00,62.3,57.6,29.18,North,0,0.0,0.0,84,0.00,,,0.00,proprietary,2013-08-17 01:09:00,
2013-08-16 21:14:00,61.8,57.4,29.18,North,0,0.0,0.0,85,0.00,,,0.00,proprietary,2013-08-17 01:14:00,
2013-08-16 21:19:00,61.7,57.2,29.19,North,0,0.0,0.0,85,0.00,,,0.00,proprietary,2013-08-17 01:19:00,
2013-08-16 21:24:00,61.2,57.0,29.19,North,0,0.0,0.0,86,0.00,,,0.00,proprietary,2013-08-17 01:24:00,
2013-08-16 21:29:00,61.2,56.8,29.19,North,0,0.0,0.0,85,0.00,,,0.00,proprietary,2013-08-17 01:29:00,
2013-08-16 21:34:00,61.0,56.6,29.19,North,0,0.0,0.0,85,0.00,,,0.00,proprietary,2013-08-17 01:34:00,
2013-08-16 21:39:00,61.1,56.7,29.19,North,0,0.0,0.0,85,0.00,,,0.00,proprietary,2013-08-17 01:39:00,
2013-08-16 21:44:00,60.7,56.7,29.19,North,0,0.0,0.0,86,0.00,,,0.00,proprietary,2013-08-17 01:44:00,
2013-08-16 21:50:00,60.6,56.6,29.19,North,0,0.0,0.0,86,0.00,,,0.00,proprietary,2013-08-17 01:50:00,
2013-08-16 21:56:00,60.7,56.7,29.20,NNW,338,1.7,2.7,86,0.00,,,0.00,proprietary,2013-08-17 01:56:00,
2013-08-16 22:02:00,61.0,57.6,29.20,ENE,62,0.4,1.6,88,0.00,,,0.00,proprietary,2013-08-17 02:02:00,
2013-08-16 22:07:00,61.4,57.6,29.20,North,0,0.0,0.0,87,0.00,,,0.00,proprietary,2013-08-17 02:07:00,
2013-08-16 22:12:00,61.5,57.6,29.20,North,0,0.0,0.0,86,0.00,,,0.00,proprietary,2013-08-17 02:12:00,
2013-08-16 22:17:00,61.6,57.5,29.20,NW,313,2.3,2.4,86,0.00,,,0.00,proprietary,2013-08-17 02:17:00,
2013-08-16 22:22:00,61.0,57.0,29.20,North,0,0.0,0.0,86,0.00,,,0.00,proprietary,2013-08-17 02:22:00,
2013-08-16 22:28:00,60.3,57.0,29.20,North,0,0.0,0.0,88,0.00,,,0.00,proprietary,2013-08-17 02:28:00,
2013-08-16 22:33:00,60.2,57.0,29.20,North,0,0.0,0.0,89,0.00,,,0.00,proprietary,2013-08-17 02:33:00,
2013-08-16 22:38:00,60.0,57.0,29.20,North,0,0.0,0.0,89,0.00,,,0.00,proprietary,2013-08-17 02:38:00,
2013-08-16 22:44:00,59.8,57.0,29.20,North,0,0.0,0.0,90,0.00,,,0.00,proprietary,2013-08-17 02:44:00,
2013-08-16 22:49:00,59.7,56.9,29.20,North,0,0.0,0.0,90,0.00,,,0.00,proprietary,2013-08-17 02:49:00,
2013-08-16 22:54:00,59.5,56.6,29.20,North,0,0.0,0.0,89,0.00,,,0.00,proprietary,2013-08-17 02:54:00,
2013-08-16 23:00:00,59.2,56.4,29.20,North,0,0.0,0.0,90,0.00,,,0.00,proprietary,2013-08-17 03:00:00,
2013-08-16 23:05:00,59.2,56.6,29.20,North,0,0.0,0.0,90,0.00,,,0.00,proprietary,2013-08-17 03:05:00,
2013-08-16 23:10:00,59.3,56.7,29.20,North,0,0.0,0.0,91,0.00,,,0.00,proprietary,2013-08-17 03:10:00,
2013-08-16 23:15:00,59.4,56.7,29.20,North,0,0.0,0.0,90,0.00,,,0.00,proprietary,2013-08-17 03:15:00,
2013-08-16 23:20:00,59.5,56.8,29.20,North,0,0.0,0.0,90,0.00,,,0.00,proprietary,2013-08-17 03:20:00,
2013-08-16 23:25:00,59.5,56.8,29.20,North,0,0.0,0.0,90,0.00,,,0.00,proprietary,2013-08-17 03:25:00,
2013-08-16 23:30:00,59.4,56.7,29.20,North,0,0.0,0.0,90,0.00,,,0.00,proprietary,2013-08-17 03:30:00,
2013-08-16 23:35:00,59.2,56.6,29.20,North,0,0.0,0.0,91,0.00,,,0.00,proprietary,2013-08-17 03:35:00,
2013-08-16 23:40:00,59.1,56.6,29.20,North,0,0.0,0.0,91,0.00,,,0.00,proprietary,2013-08-17 03:40:00,
2013-08-16 23:45:00,59.0,56.5,29.20,North,0,0.0,0.0,91,0.00,,,0.00,proprietary,2013-08-17 03:45:00,
2013-08-16 23:50:00,58.7,56.3,29.21,North,0,0.0,0.0,91,0.00,,,0.00,proprietary,2013-08-17 03:50:00,
2013-08-16 23:55:00,58.5,56.1,29.21,North,0,0.0,0.0,91,0.00,,,0.00,proprietary,2013-08-17 03:55:00,